createdAt,value
2022-12-17T00:01:53.484Z,26.93
2022-12-17T00:04:39.649Z,24.60
2022-12-17T00:07:26.158Z,25.33
2022-12-17T00:10:11.787Z,23.90
2022-12-17T00:12:57.625Z,28.90
2022-12-17T00:15:43.909Z,26.50
2022-12-17T00:18:31.135Z,27.60
2022-12-17T00:21:19.408Z,25.53
2022-12-17T00:24:06.242Z,23.87
2022-12-17T00:26:52.885Z,29.10
2022-12-17T00:29:40.479Z,31.90
2022-12-17T00:32:28.367Z,22.10
2022-12-17T00:35:14.250Z,24.43
2022-12-17T00:38:01.513Z,20.20
2022-12-17T00:40:47.610Z,24.03
2022-12-17T00:43:34.187Z,27.43
2022-12-17T00:46:20.235Z,22.20
2022-12-17T00:49:07.623Z,22.07
2022-12-17T00:51:54.325Z,25.10
2022-12-17T00:54:40.491Z,23.67
2022-12-17T00:57:26.319Z,24.70
2022-12-17T01:00:13.093Z,24.43
2022-12-17T01:02:58.887Z,17.87
2022-12-17T01:05:45.497Z,22.27
2022-12-17T01:08:34.330Z,22.80
2022-12-17T01:11:23.089Z,22.80
2022-12-17T01:14:09.758Z,22.07
2022-12-17T01:16:56.596Z,19.23
2022-12-17T01:19:42.764Z,24.47
2022-12-17T01:22:29.783Z,23.33
2022-12-17T01:25:15.518Z,16.27
2022-12-17T01:28:01.162Z,19.83
2022-12-17T01:30:46.922Z,21.70
2022-12-17T01:33:32.642Z,21.10
2022-12-17T01:36:19.304Z,19.13
2022-12-17T01:39:05.355Z,18.13
2022-12-17T01:41:51.649Z,19.47
2022-12-17T01:45:06.227Z,16.07
2022-12-17T01:48:05.705Z,18.63
2022-12-17T01:50:56.979Z,21.60
2022-12-17T01:53:51.340Z,19.33
2022-12-17T01:56:38.873Z,20.37
2022-12-17T01:59:27.543Z,18.97
2022-12-17T02:02:14.614Z,18.00
2022-12-17T02:05:02.175Z,16.70
2022-12-17T02:08:25.763Z,16.23
2022-12-17T02:11:58.326Z,16.03
2022-12-17T02:14:52.702Z,14.53
2022-12-17T02:17:44.607Z,14.77
2022-12-17T02:20:49.853Z,14.57
2022-12-17T02:24:00.828Z,13.83
2022-12-17T02:27:04.741Z,13.67
2022-12-17T02:30:14.948Z,14.53
2022-12-17T02:33:05.290Z,15.90
2022-12-17T02:36:00.033Z,17.80
2022-12-17T02:38:49.699Z,17.17
2022-12-17T02:41:46.878Z,12.40
2022-12-17T02:44:38.977Z,10.13
2022-12-17T02:47:29.815Z,12.23
2022-12-17T02:50:16.503Z,13.43
2022-12-17T02:53:07.178Z,14.97
2022-12-17T02:55:55.295Z,14.43
2022-12-17T02:58:41.910Z,16.77
2022-12-17T03:01:28.956Z,11.90
2022-12-17T03:04:15.521Z,13.53
2022-12-17T03:07:02.939Z,13.57
2022-12-17T03:09:49.058Z,14.53
2022-12-17T03:12:35.508Z,14.67
2022-12-17T03:15:22.374Z,12.47
2022-12-17T03:18:08.516Z,18.23
2022-12-17T03:20:54.964Z,14.30
2022-12-17T03:23:41.291Z,18.10
2022-12-17T03:26:27.924Z,17.83
2022-12-17T03:29:34.566Z,16.70
2022-12-17T03:32:21.086Z,15.20
2022-12-17T03:35:07.793Z,15.60
2022-12-17T03:37:53.879Z,19.37
2022-12-17T03:40:40.022Z,12.77
2022-12-17T03:43:30.232Z,13.07
2022-12-17T03:46:16.415Z,17.20
2022-12-17T03:49:02.155Z,12.47
2022-12-17T03:51:48.518Z,16.17
2022-12-17T03:54:34.940Z,12.57
2022-12-17T03:57:21.656Z,14.67
2022-12-17T04:00:08.069Z,17.17
2022-12-17T04:03:00.549Z,13.93
2022-12-17T04:05:48.234Z,11.60
2022-12-17T04:08:34.536Z,18.23
2022-12-17T04:11:23.986Z,15.77
2022-12-17T04:14:10.263Z,16.37
2022-12-17T04:16:56.592Z,13.00
2022-12-17T04:19:43.275Z,15.57
2022-12-17T04:22:29.618Z,11.30
2022-12-17T04:25:15.467Z,16.40
2022-12-17T04:28:01.558Z,15.53
2022-12-17T04:30:47.947Z,14.90
2022-12-17T04:33:34.637Z,17.10
2022-12-17T04:36:21.558Z,13.43
2022-12-17T04:39:08.334Z,15.07
2022-12-17T04:41:54.934Z,11.93
2022-12-17T04:44:41.654Z,17.00
2022-12-17T04:47:28.306Z,15.17
2022-12-17T04:50:14.749Z,16.07
2022-12-17T04:53:04.219Z,15.67
2022-12-17T04:55:50.223Z,14.33
2022-12-17T04:58:36.719Z,17.30
2022-12-17T05:01:39.855Z,14.63
2022-12-17T05:04:26.401Z,16.37
2022-12-17T05:07:12.255Z,17.20
2022-12-17T05:09:58.944Z,15.13
2022-12-17T05:12:44.683Z,13.70
2022-12-17T05:15:35.023Z,15.40
2022-12-17T05:18:27.176Z,16.17
2022-12-17T05:21:14.328Z,12.53
2022-12-17T05:24:05.530Z,15.10
2022-12-17T05:26:52.071Z,15.93
2022-12-17T05:29:37.838Z,17.23
2022-12-17T05:32:23.648Z,16.07
2022-12-17T05:35:09.899Z,20.10
2022-12-17T05:37:56.385Z,13.73
2022-12-17T05:40:42.733Z,16.47
2022-12-17T05:43:31.700Z,15.70
2022-12-17T05:46:17.984Z,15.53
2022-12-17T05:49:04.546Z,21.07
2022-12-17T05:51:51.011Z,10.83
2022-12-17T05:54:37.903Z,16.17
2022-12-17T05:57:23.793Z,22.07
2022-12-17T06:00:10.143Z,14.57
2022-12-17T06:02:59.153Z,17.63
2022-12-17T06:05:46.437Z,13.90
2022-12-17T06:08:33.478Z,13.77
2022-12-17T06:11:20.095Z,12.47
2022-12-17T06:14:06.817Z,17.23
2022-12-17T06:16:54.082Z,10.20
2022-12-17T06:19:40.912Z,14.33
2022-12-17T06:22:27.823Z,17.30
2022-12-17T06:25:14.258Z,15.00
2022-12-17T06:28:00.041Z,14.43
2022-12-17T06:30:45.885Z,16.27
2022-12-17T06:33:32.319Z,15.87
2022-12-17T06:36:22.543Z,17.20
2022-12-17T06:39:09.944Z,18.00
2022-12-17T06:42:03.744Z,14.90
2022-12-17T06:44:51.409Z,21.27
2022-12-17T06:47:38.226Z,20.07
2022-12-17T06:50:25.310Z,16.67
2022-12-17T06:53:26.171Z,18.33
2022-12-17T06:56:12.005Z,16.17
2022-12-17T06:58:58.358Z,13.70
2022-12-17T07:01:45.046Z,17.90
2022-12-17T07:04:32.024Z,15.93
2022-12-17T07:07:18.402Z,23.30
2022-12-17T07:10:06.951Z,16.00
2022-12-17T07:12:56.935Z,15.73
2022-12-17T07:15:43.291Z,25.13
2022-12-17T07:18:29.347Z,25.33
2022-12-17T07:21:15.087Z,20.10
2022-12-17T07:24:01.209Z,21.13
2022-12-17T07:26:46.863Z,29.43
2022-12-17T07:29:33.213Z,24.83
2022-12-17T07:32:19.081Z,14.13
2022-12-17T07:35:05.104Z,24.70
2022-12-17T07:37:50.852Z,14.90
2022-12-17T07:40:36.487Z,14.67
2022-12-17T07:43:30.820Z,15.57
2022-12-17T07:46:16.622Z,17.57
2022-12-17T07:49:03.729Z,29.73
2022-12-17T07:51:49.977Z,23.80
2022-12-17T07:54:35.806Z,19.33
2022-12-17T07:57:22.118Z,30.23
2022-12-17T08:00:07.975Z,21.50
2022-12-17T08:02:53.976Z,26.87
2022-12-17T08:05:40.428Z,27.50
2022-12-17T08:08:31.662Z,25.30
2022-12-17T08:11:18.339Z,24.80
2022-12-17T08:14:04.160Z,29.30
2022-12-17T08:16:50.337Z,28.73
2022-12-17T08:19:36.064Z,20.77
2022-12-17T08:22:22.294Z,32.90
2022-12-17T08:25:08.044Z,35.50
2022-12-17T08:27:54.662Z,31.17
2022-12-17T08:30:57.437Z,35.83
2022-12-17T08:33:43.280Z,29.77
2022-12-17T08:36:29.772Z,33.37
2022-12-17T08:39:15.937Z,33.77
2022-12-17T08:42:04.545Z,36.33
2022-12-17T08:44:50.447Z,29.87
2022-12-17T08:47:36.218Z,21.97
2022-12-17T08:50:24.394Z,34.73
2022-12-17T08:53:21.195Z,31.47
2022-12-17T08:56:07.784Z,38.80
2022-12-17T08:58:58.686Z,25.00
2022-12-17T09:01:44.927Z,37.20
2022-12-17T09:04:30.464Z,43.77
2022-12-17T09:07:15.931Z,30.13
2022-12-17T09:10:01.426Z,31.90
2022-12-17T09:12:47.190Z,32.27
2022-12-17T09:15:33.100Z,36.83
2022-12-17T09:18:18.752Z,30.00
2022-12-17T09:21:13.840Z,27.93
2022-12-17T09:23:59.911Z,33.90
2022-12-17T09:26:45.390Z,21.60
2022-12-17T09:29:31.008Z,27.77
2022-12-17T09:32:16.556Z,28.20
2022-12-17T09:35:02.130Z,33.17
2022-12-17T09:37:47.651Z,35.07
2022-12-17T09:40:41.906Z,34.83
2022-12-17T09:43:40.938Z,28.60
2022-12-17T09:46:56.216Z,25.27
2022-12-17T09:49:45.832Z,29.27
2022-12-17T09:52:58.486Z,28.17
2022-12-17T09:56:11.347Z,29.40
2022-12-17T09:59:00.676Z,21.33
2022-12-17T10:01:54.492Z,30.93
2022-12-17T10:05:03.528Z,28.33
2022-12-17T10:07:57.379Z,32.10
2022-12-17T10:10:51.046Z,31.03
2022-12-17T10:13:42.535Z,38.30
2022-12-17T10:16:48.524Z,33.27
2022-12-17T10:19:47.609Z,35.10
2022-12-17T10:22:39.350Z,25.07
2022-12-17T10:25:42.020Z,30.97
2022-12-17T10:28:33.372Z,31.93
2022-12-17T10:31:20.717Z,26.67
2022-12-17T10:34:06.751Z,30.30
2022-12-17T10:36:52.476Z,25.40
2022-12-17T10:39:44.149Z,25.60
2022-12-17T10:42:57.768Z,28.10
2022-12-17T10:45:47.973Z,29.57
2022-12-17T10:48:47.088Z,26.37
2022-12-17T10:51:53.638Z,27.23
2022-12-17T10:54:49.027Z,30.83
2022-12-17T10:57:57.027Z,33.43
2022-12-17T11:00:50.335Z,30.23
2022-12-17T11:03:55.074Z,37.20
2022-12-17T11:06:53.171Z,38.47
2022-12-17T11:10:10.350Z,39.57
2022-12-17T11:13:04.993Z,41.03
2022-12-17T11:16:05.575Z,39.07
2022-12-17T11:19:17.155Z,37.17
2022-12-17T11:22:15.561Z,40.37
2022-12-17T11:25:21.679Z,47.53
2022-12-17T11:28:17.334Z,42.83
2022-12-17T11:31:14.700Z,45.57
2022-12-17T11:34:15.809Z,42.97
2022-12-17T11:37:35.970Z,49.00
2022-12-17T11:40:59.062Z,47.37
2022-12-17T11:44:06.435Z,43.90
2022-12-17T11:47:10.297Z,39.93
2022-12-17T11:50:21.648Z,40.63
2022-12-17T11:53:28.355Z,41.23
2022-12-17T11:56:44.200Z,38.80
2022-12-17T11:59:57.114Z,44.13
2022-12-17T12:03:12.410Z,47.87
2022-12-17T12:06:20.145Z,46.77
2022-12-17T12:09:30.640Z,43.63
2022-12-17T12:12:58.034Z,43.30
2022-12-17T12:16:12.479Z,50.70
2022-12-17T12:19:19.901Z,43.47
2022-12-17T12:22:28.846Z,37.50
2022-12-17T12:25:37.893Z,46.53
2022-12-17T12:28:45.542Z,40.20
2022-12-17T12:31:49.458Z,38.17
2022-12-17T12:34:44.561Z,36.03
2022-12-17T12:37:33.364Z,35.87
2022-12-17T12:40:42.472Z,32.03
2022-12-17T12:43:45.916Z,30.33
2022-12-17T12:47:06.893Z,29.50
2022-12-17T12:50:21.837Z,31.63
2022-12-17T12:53:07.912Z,30.57
2022-12-17T12:56:01.367Z,35.57
2022-12-17T12:58:54.123Z,31.63
2022-12-17T13:01:53.523Z,33.97
2022-12-17T13:04:53.713Z,32.77
2022-12-17T13:07:31.481Z,33.97
2022-12-17T13:09:59.778Z,34.37
2022-12-17T13:12:40.226Z,35.60
2022-12-17T13:15:07.474Z,32.80
2022-12-17T13:17:38.028Z,33.47
2022-12-17T13:20:22.704Z,34.90
2022-12-17T13:23:11.549Z,38.47
2022-12-17T13:25:39.129Z,55.40
2022-12-17T13:28:26.385Z,33.13
2022-12-17T13:31:13.549Z,35.30
2022-12-17T13:34:03.403Z,36.33
2022-12-17T13:36:51.152Z,36.43
2022-12-17T13:39:52.405Z,38.83
2022-12-17T13:42:30.713Z,39.67
2022-12-17T13:44:59.288Z,39.00
2022-12-17T13:47:34.655Z,36.63
2022-12-17T13:50:36.601Z,33.80
2022-12-17T13:53:15.872Z,39.83
2022-12-17T13:55:51.577Z,43.60
2022-12-17T13:58:32.455Z,41.00
2022-12-17T14:01:12.165Z,42.20
2022-12-17T14:04:05.265Z,40.87
2022-12-17T14:06:38.859Z,42.00
2022-12-17T14:09:06.444Z,41.57
2022-12-17T14:11:52.628Z,44.27
2022-12-17T14:14:34.444Z,40.83
2022-12-17T14:17:02.413Z,46.10
2022-12-17T14:19:32.080Z,49.73
2022-12-17T14:22:02.596Z,46.47
2022-12-17T14:24:30.348Z,56.73
2022-12-17T14:27:00.842Z,58.23
2022-12-17T14:29:31.087Z,62.17
2022-12-17T14:32:16.999Z,55.07
2022-12-17T14:34:44.397Z,58.43
2022-12-17T14:37:21.210Z,58.07
2022-12-17T14:39:49.149Z,54.83
2022-12-17T14:42:27.233Z,59.07
2022-12-17T14:45:18.858Z,64.57
2022-12-17T14:48:15.889Z,65.67
2022-12-17T14:50:43.085Z,68.63
2022-12-17T14:53:27.503Z,67.20
2022-12-17T14:55:59.280Z,70.37
2022-12-17T14:58:27.737Z,61.57
2022-12-17T15:01:07.553Z,62.40
2022-12-17T15:03:43.805Z,61.53
2022-12-17T15:06:17.340Z,61.73
2022-12-17T15:08:53.584Z,68.57
2022-12-17T15:11:25.383Z,63.50
2022-12-17T15:13:56.391Z,61.67
2022-12-17T15:16:24.378Z,57.03
2022-12-17T15:18:51.725Z,54.13
2022-12-17T15:21:20.339Z,67.37
2022-12-17T15:23:51.703Z,57.57
2022-12-17T15:26:19.967Z,60.80
2022-12-17T15:28:47.671Z,56.97
2022-12-17T15:31:17.794Z,62.03
2022-12-17T15:33:47.862Z,56.87
2022-12-17T15:36:15.703Z,57.17
2022-12-17T15:38:43.053Z,67.77
2022-12-17T15:41:28.633Z,57.67
2022-12-17T15:43:55.711Z,62.20
2022-12-17T15:46:23.232Z,59.50
2022-12-17T15:48:51.021Z,64.33
2022-12-17T15:51:21.037Z,56.90
2022-12-17T15:53:48.527Z,62.33
2022-12-17T15:56:24.364Z,73.17
2022-12-17T15:58:52.161Z,70.03
2022-12-17T16:01:20.269Z,60.73
2022-12-17T16:03:47.610Z,63.27
2022-12-17T16:06:14.723Z,61.97
2022-12-17T16:08:41.847Z,71.30
2022-12-17T16:11:10.962Z,64.73
2022-12-17T16:13:39.286Z,64.93
2022-12-17T16:16:07.837Z,70.50
2022-12-17T16:18:38.951Z,73.87
2022-12-17T16:21:08.536Z,65.10
2022-12-17T16:23:36.785Z,84.20
2022-12-17T16:26:06.638Z,78.00
2022-12-17T16:28:35.462Z,78.53
2022-12-17T16:31:10.733Z,65.40
2022-12-17T16:33:41.961Z,68.77
2022-12-17T16:36:13.745Z,72.90
2022-12-17T16:38:53.188Z,77.27
2022-12-17T16:41:22.198Z,74.07
2022-12-17T16:43:50.046Z,70.00
2022-12-17T16:46:30.783Z,75.33
2022-12-17T16:49:04.354Z,67.10
2022-12-17T16:51:31.936Z,72.93
2022-12-17T16:53:59.960Z,87.10
2022-12-17T16:56:28.625Z,65.07
2022-12-17T16:58:56.503Z,65.40
2022-12-17T17:01:27.211Z,66.53
2022-12-17T17:04:01.679Z,64.83
2022-12-17T17:06:55.339Z,64.00
2022-12-17T17:09:23.844Z,68.57
2022-12-17T17:11:52.266Z,67.23
2022-12-17T17:14:19.945Z,64.97
2022-12-17T17:16:46.973Z,69.57
2022-12-17T17:19:14.067Z,72.23
2022-12-17T17:21:48.518Z,66.57
2022-12-17T17:24:21.177Z,61.20
2022-12-17T17:26:49.934Z,67.17
2022-12-17T17:29:17.361Z,62.07
2022-12-17T17:34:32.599Z,66.60
2022-12-17T17:36:59.900Z,59.20
2022-12-17T17:39:27.420Z,59.43
2022-12-17T17:41:54.642Z,57.47
2022-12-17T17:44:21.701Z,63.10
2022-12-17T17:46:48.880Z,61.07
2022-12-17T17:49:16.334Z,67.53
2022-12-17T17:54:31.854Z,74.23
2022-12-17T17:56:59.160Z,56.87
2022-12-17T17:59:32.888Z,63.77
2022-12-17T18:02:02.590Z,58.90
2022-12-17T18:04:30.840Z,56.40
2022-12-17T18:09:45.244Z,49.30
2022-12-17T18:12:31.269Z,60.73
2022-12-17T18:15:16.438Z,66.93
2022-12-17T18:18:14.986Z,58.80
2022-12-17T18:20:42.207Z,61.73
2022-12-17T18:23:09.415Z,53.33
2022-12-17T18:25:37.908Z,56.63
2022-12-17T18:28:05.299Z,55.33
2022-12-17T18:30:32.416Z,55.67
2022-12-17T18:32:59.563Z,53.33
2022-12-17T18:35:27.455Z,55.27
2022-12-17T18:37:54.533Z,53.57
2022-12-17T18:40:21.606Z,53.70
2022-12-17T18:43:06.914Z,49.17
2022-12-17T18:45:38.176Z,55.70
2022-12-17T18:48:06.041Z,56.93
2022-12-17T18:50:34.934Z,52.03
2022-12-17T18:53:02.461Z,51.60
2022-12-17T18:55:29.661Z,58.43
2022-12-17T18:57:56.970Z,51.67
2022-12-17T19:00:24.048Z,51.70
2022-12-17T19:02:51.169Z,47.80
2022-12-17T19:05:18.653Z,43.43
2022-12-17T19:07:46.054Z,39.40
2022-12-17T19:10:13.112Z,45.73
2022-12-17T19:12:40.344Z,44.13
2022-12-17T19:15:08.542Z,43.57
2022-12-17T19:17:35.910Z,50.43
2022-12-17T19:20:02.982Z,49.93
2022-12-17T19:22:30.216Z,43.10
2022-12-17T19:24:57.573Z,35.63
2022-12-17T19:27:25.476Z,41.07
2022-12-17T19:29:52.557Z,51.13
2022-12-17T19:32:19.687Z,38.27
2022-12-17T19:34:46.940Z,46.20
2022-12-17T19:37:14.153Z,46.17
2022-12-17T19:39:41.277Z,43.43
2022-12-17T19:42:24.896Z,40.07
2022-12-17T19:44:56.602Z,42.40
2022-12-17T19:47:24.521Z,43.53
2022-12-17T19:49:51.733Z,42.97
2022-12-17T19:52:18.947Z,40.53
2022-12-17T19:54:46.123Z,48.47
2022-12-17T19:57:13.280Z,43.73
2022-12-17T19:59:40.337Z,41.20
2022-12-17T20:02:09.616Z,36.10
2022-12-17T20:04:37.092Z,38.03
2022-12-17T20:07:04.251Z,49.10
2022-12-17T20:09:31.321Z,43.73
2022-12-17T20:11:58.474Z,40.80
2022-12-17T20:14:29.202Z,48.63
2022-12-17T20:16:59.751Z,46.60
2022-12-17T20:19:33.253Z,41.67
2022-12-17T20:22:04.433Z,40.13
2022-12-17T20:24:32.319Z,48.70
2022-12-17T20:27:00.414Z,41.87
2022-12-17T20:29:28.141Z,42.57
2022-12-17T20:31:55.856Z,46.97
2022-12-17T20:34:24.351Z,40.93
2022-12-17T20:36:52.526Z,38.57
2022-12-17T20:39:26.165Z,49.50
2022-12-17T20:41:54.048Z,52.07
2022-12-17T20:44:21.121Z,42.37
2022-12-17T20:46:48.219Z,41.97
2022-12-17T20:49:15.537Z,39.53
2022-12-17T20:51:42.789Z,44.60
2022-12-17T20:54:10.813Z,42.93
2022-12-17T20:56:39.575Z,42.50
2022-12-17T20:59:11.663Z,45.53
2022-12-17T21:01:40.059Z,49.83
2022-12-17T21:04:07.882Z,43.50
2022-12-17T21:06:42.198Z,38.17
2022-12-17T21:09:10.013Z,41.10
2022-12-17T21:11:39.312Z,39.77
2022-12-17T21:14:13.843Z,55.93
2022-12-17T21:16:42.679Z,41.10
2022-12-17T21:19:13.963Z,48.40
2022-12-17T21:21:41.087Z,37.63
2022-12-17T21:24:09.185Z,39.67
2022-12-17T21:26:40.823Z,38.73
2022-12-17T21:29:09.964Z,43.77
2022-12-17T21:31:44.026Z,40.83
2022-12-17T21:34:21.900Z,44.33
2022-12-17T21:36:50.781Z,39.97
2022-12-17T21:39:20.063Z,40.30
2022-12-17T21:42:07.743Z,41.97
2022-12-17T21:44:36.098Z,42.70
2022-12-17T21:47:03.890Z,43.67
2022-12-17T21:49:31.827Z,50.17
2022-12-17T21:52:00.229Z,41.73
2022-12-17T21:54:27.964Z,38.53
2022-12-17T21:56:55.247Z,39.93
2022-12-17T21:59:22.654Z,33.83
2022-12-17T22:01:51.712Z,38.57
2022-12-17T22:04:19.555Z,36.03
2022-12-17T22:06:57.227Z,40.17
2022-12-17T22:09:41.503Z,41.70
2022-12-17T22:12:40.687Z,35.77
2022-12-17T22:15:11.176Z,41.33
2022-12-17T22:17:40.547Z,35.73
2022-12-17T22:20:09.461Z,37.83
2022-12-17T22:22:36.892Z,45.77
2022-12-17T22:25:08.248Z,34.57
2022-12-17T22:27:39.924Z,36.93
2022-12-17T22:30:32.044Z,37.33
2022-12-17T22:32:59.737Z,42.97
2022-12-17T22:37:23.682Z,40.27
2022-12-17T22:43:38.234Z,39.37
2022-12-17T22:44:34.437Z,45.00
2022-12-17T22:44:51.775Z,35.30
2022-12-17T22:47:08.346Z,39.53
2022-12-17T22:49:36.085Z,29.57
2022-12-17T22:52:03.512Z,37.77
2022-12-17T22:54:31.695Z,47.90
2022-12-17T22:57:36.162Z,34.40
2022-12-17T22:59:47.049Z,40.30
2022-12-17T23:02:14.830Z,44.00
2022-12-17T23:04:43.018Z,42.17
2022-12-17T23:07:10.871Z,40.27
2022-12-17T23:09:38.339Z,37.67
2022-12-17T23:12:25.561Z,42.23
2022-12-17T23:14:53.218Z,33.23
2022-12-17T23:17:22.916Z,30.37
2022-12-17T23:19:50.412Z,34.00
2022-12-17T23:22:22.097Z,34.07
2022-12-17T23:24:50.876Z,50.03
2022-12-17T23:27:18.370Z,40.63
2022-12-17T23:29:47.047Z,47.40
2022-12-17T23:32:16.985Z,44.03
2022-12-17T23:34:45.742Z,43.10
2022-12-17T23:37:13.961Z,44.17
2022-12-17T23:39:41.533Z,46.67
2022-12-17T23:42:09.139Z,49.23
2022-12-17T23:44:36.433Z,46.30
2022-12-17T23:47:04.699Z,54.97
2022-12-17T23:49:32.116Z,41.97
2022-12-17T23:51:59.569Z,41.90
2022-12-17T23:54:27.003Z,59.33
2022-12-17T23:56:55.253Z,56.53
2022-12-17T23:59:23.785Z,57.43
